sensor_id;sensor_type;location;lat;lon;timestamp;pressure;altitude;pressure_sealevel;temperature;humidity
42519;BME280;28147;47.520;18.920;2023-10-13T00:01:57;98685.13;;;20.64;57.66
42519;BME280;28147;47.520;18.920;2023-10-13T00:04:33;98692.41;;;20.69;57.05
42519;BME280;28147;47.520;18.920;2023-10-13T00:07:01;98691.81;;;20.53;57.16
42519;BME280;28147;47.520;18.920;2023-10-13T00:09:28;98690.41;;;20.56;57.22
42519;BME280;28147;47.520;18.920;2023-10-13T00:12:00;98695.94;;;20.46;57.16
42519;BME280;28147;47.520;18.920;2023-10-13T00:14:26;98690.81;;;20.44;57.55
42519;BME280;28147;47.520;18.920;2023-10-13T00:17:04;98690.50;;;20.27;58.54
42519;BME280;28147;47.520;18.920;2023-10-13T00:19:34;98684.28;;;20.26;58.53
42519;BME280;28147;47.520;18.920;2023-10-13T00:22:08;98693.94;;;20.32;58.07
42519;BME280;28147;47.520;18.920;2023-10-13T00:24:40;98690.31;;;20.18;58.54
42519;BME280;28147;47.520;18.920;2023-10-13T00:27:17;98697.00;;;20.26;58.24
42519;BME280;28147;47.520;18.920;2023-10-13T00:30:06;98689.19;;;20.24;58.57
42519;BME280;28147;47.520;18.920;2023-10-13T00:32:51;98688.22;;;20.34;57.88
42519;BME280;28147;47.520;18.920;2023-10-13T00:35:20;98686.78;;;20.41;57.71
42519;BME280;28147;47.520;18.920;2023-10-13T00:38:00;98684.28;;;20.45;57.55
42519;BME280;28147;47.520;18.920;2023-10-13T00:40:31;98684.94;;;20.37;58.45
42519;BME280;28147;47.520;18.920;2023-10-13T00:42:57;98690.19;;;20.52;57.73
42519;BME280;28147;47.520;18.920;2023-10-13T00:45:33;98686.75;;;20.23;59.04
42519;BME280;28147;47.520;18.920;2023-10-13T00:47:59;98690.34;;;20.37;58.33
42519;BME280;28147;47.520;18.920;2023-10-13T00:50:26;98683.66;;;20.34;58.48
42519;BME280;28147;47.520;18.920;2023-10-13T00:52:53;98679.41;;;20.47;57.89
42519;BME280;28147;47.520;18.920;2023-10-13T00:55:19;98689.25;;;20.38;58.00
42519;BME280;28147;47.520;18.920;2023-10-13T00:57:51;98689.91;;;20.30;58.37
42519;BME280;28147;47.520;18.920;2023-10-13T01:00:18;98678.06;;;20.26;58.35
42519;BME280;28147;47.520;18.920;2023-10-13T01:02:45;98690.44;;;20.32;58.31
42519;BME280;28147;47.520;18.920;2023-10-13T01:05:20;98684.03;;;20.23;58.63
42519;BME280;28147;47.520;18.920;2023-10-13T01:07:49;98679.50;;;20.18;58.82
42519;BME280;28147;47.520;18.920;2023-10-13T01:10:18;98682.28;;;20.13;59.41
42519;BME280;28147;47.520;18.920;2023-10-13T01:12:44;98677.78;;;20.03;59.67
42519;BME280;28147;47.520;18.920;2023-10-13T01:15:11;98684.72;;;20.33;58.68
42519;BME280;28147;47.520;18.920;2023-10-13T01:17:38;98681.50;;;20.55;57.89
42519;BME280;28147;47.520;18.920;2023-10-13T01:20:04;98684.28;;;20.50;57.75
42519;BME280;28147;47.520;18.920;2023-10-13T01:22:31;98680.56;;;20.41;58.39
42519;BME280;28147;47.520;18.920;2023-10-13T01:24:57;98681.19;;;20.57;57.44
42519;BME280;28147;47.520;18.920;2023-10-13T01:27:30;98675.59;;;20.72;56.75
42519;BME280;28147;47.520;18.920;2023-10-13T01:29:55;98669.34;;;20.72;56.96
42519;BME280;28147;47.520;18.920;2023-10-13T01:32:24;98673.81;;;20.62;57.24
42519;BME280;28147;47.520;18.920;2023-10-13T01:34:49;98672.81;;;20.77;56.94
42519;BME280;28147;47.520;18.920;2023-10-13T01:37:20;98660.75;;;21.02;54.93
42519;BME280;28147;47.520;18.920;2023-10-13T01:39:47;98662.19;;;20.81;56.10
42519;BME280;28147;47.520;18.920;2023-10-13T01:42:14;98674.41;;;20.78;56.67
42519;BME280;28147;47.520;18.920;2023-10-13T01:44:45;98679.59;;;20.75;56.95
42519;BME280;28147;47.520;18.920;2023-10-13T01:47:10;98685.78;;;20.94;56.65
42519;BME280;28147;47.520;18.920;2023-10-13T01:49:38;98681.63;;;20.83;56.85
42519;BME280;28147;47.520;18.920;2023-10-13T01:52:13;98686.31;;;20.77;57.38
42519;BME280;28147;47.520;18.920;2023-10-13T01:54:42;98688.94;;;20.82;56.94
42519;BME280;28147;47.520;18.920;2023-10-13T01:57:10;98684.66;;;20.62;57.11
42519;BME280;28147;47.520;18.920;2023-10-13T01:59:57;98678.28;;;20.53;57.76
42519;BME280;28147;47.520;18.920;2023-10-13T02:02:28;98673.25;;;20.65;57.37
42519;BME280;28147;47.520;18.920;2023-10-13T02:04:54;98682.81;;;20.96;56.25
42519;BME280;28147;47.520;18.920;2023-10-13T02:07:25;98685.09;;;20.70;57.04
42519;BME280;28147;47.520;18.920;2023-10-13T02:09:55;98669.13;;;20.49;58.18
42519;BME280;28147;47.520;18.920;2023-10-13T02:12:21;98676.38;;;20.73;57.10
42519;BME280;28147;47.520;18.920;2023-10-13T02:14:53;98669.34;;;20.72;57.16
42519;BME280;28147;47.520;18.920;2023-10-13T02:17:18;98675.16;;;20.84;56.57
42519;BME280;28147;47.520;18.920;2023-10-13T02:19:46;98678.69;;;20.98;55.81
42519;BME280;28147;47.520;18.920;2023-10-13T02:22:13;98675.63;;;20.86;57.16
42519;BME280;28147;47.520;18.920;2023-10-13T02:24:51;98673.97;;;20.71;57.44
42519;BME280;28147;47.520;18.920;2023-10-13T02:27:18;98675.59;;;20.72;57.42
42519;BME280;28147;47.520;18.920;2023-10-13T02:29:49;98678.13;;;20.63;57.67
42519;BME280;28147;47.520;18.920;2023-10-13T02:32:14;98679.72;;;20.64;57.00
42519;BME280;28147;47.520;18.920;2023-10-13T02:34:49;98693.91;;;20.94;55.91
42519;BME280;28147;47.520;18.920;2023-10-13T02:37:14;98685.59;;;20.72;57.01
42519;BME280;28147;47.520;18.920;2023-10-13T02:39:41;98682.66;;;20.87;57.24
42519;BME280;28147;47.520;18.920;2023-10-13T02:42:07;98689.84;;;20.78;57.27
42519;BME280;28147;47.520;18.920;2023-10-13T02:44:34;98694.94;;;20.98;56.18
42519;BME280;28147;47.520;18.920;2023-10-13T02:47:01;98699.75;;;21.01;56.28
42519;BME280;28147;47.520;18.920;2023-10-13T02:49:28;98703.56;;;21.00;56.19
42519;BME280;28147;47.520;18.920;2023-10-13T02:52:02;98711.59;;;21.05;55.40
42519;BME280;28147;47.520;18.920;2023-10-13T02:54:32;98712.41;;;21.06;55.32
42519;BME280;28147;47.520;18.920;2023-10-13T02:57:05;98704.88;;;21.22;54.34
42519;BME280;28147;47.520;18.920;2023-10-13T02:59:32;98711.44;;;21.16;55.12
42519;BME280;28147;47.520;18.920;2023-10-13T03:02:12;98712.81;;;21.32;54.73
42519;BME280;28147;47.520;18.920;2023-10-13T03:04:56;98703.25;;;21.21;54.98
42519;BME280;28147;47.520;18.920;2023-10-13T03:07:28;98712.31;;;21.30;54.77
42519;BME280;28147;47.520;18.920;2023-10-13T03:09:59;98689.09;;;21.43;54.19
42519;BME280;28147;47.520;18.920;2023-10-13T03:12:36;98686.38;;;21.43;53.48
42519;BME280;28147;47.520;18.920;2023-10-13T03:15:02;98687.81;;;21.54;53.78
42519;BME280;28147;47.520;18.920;2023-10-13T03:17:46;98688.34;;;21.70;53.57
42519;BME280;28147;47.520;18.920;2023-10-13T03:20:21;98683.06;;;21.78;53.86
42519;BME280;28147;47.520;18.920;2023-10-13T03:22:57;98674.69;;;21.89;52.80
42519;BME280;28147;47.520;18.920;2023-10-13T03:25:23;98675.31;;;21.99;52.83
42519;BME280;28147;47.520;18.920;2023-10-13T03:27:50;98664.47;;;21.99;52.94
42519;BME280;28147;47.520;18.920;2023-10-13T03:30:16;98674.31;;;22.09;52.95
42519;BME280;28147;47.520;18.920;2023-10-13T03:32:42;98678.22;;;22.03;53.28
42519;BME280;28147;47.520;18.920;2023-10-13T03:35:12;98672.88;;;21.70;54.63
42519;BME280;28147;47.520;18.920;2023-10-13T03:37:53;98665.66;;;21.93;53.83
42519;BME280;28147;47.520;18.920;2023-10-13T03:40:20;98661.34;;;21.92;53.61
42519;BME280;28147;47.520;18.920;2023-10-13T03:42:49;98654.72;;;22.12;53.69
42519;BME280;28147;47.520;18.920;2023-10-13T03:45:44;98640.47;;;22.06;53.73
42519;BME280;28147;47.520;18.920;2023-10-13T03:48:16;98638.38;;;21.90;55.14
42519;BME280;28147;47.520;18.920;2023-10-13T03:50:52;98642.56;;;21.82;55.49
42519;BME280;28147;47.520;18.920;2023-10-13T03:53:34;98633.75;;;21.90;55.01
42519;BME280;28147;47.520;18.920;2023-10-13T03:56:05;98631.94;;;21.99;54.49
42519;BME280;28147;47.520;18.920;2023-10-13T03:58:35;98622.22;;;21.98;54.72
42519;BME280;28147;47.520;18.920;2023-10-13T04:01:01;98614.06;;;21.98;55.03
42519;BME280;28147;47.520;18.920;2023-10-13T04:03:28;98613.97;;;21.76;56.42
42519;BME280;28147;47.520;18.920;2023-10-13T04:05:58;98613.69;;;21.64;56.74
42519;BME280;28147;47.520;18.920;2023-10-13T04:08:31;98610.28;;;21.44;58.10
42519;BME280;28147;47.520;18.920;2023-10-13T04:11:08;98621.97;;;21.40;58.24
42519;BME280;28147;47.520;18.920;2023-10-13T04:13:53;98631.94;;;21.44;58.48
42519;BME280;28147;47.520;18.920;2023-10-13T04:16:36;98632.59;;;21.36;58.99
42519;BME280;28147;47.520;18.920;2023-10-13T04:19:03;98638.69;;;21.28;59.43
42519;BME280;28147;47.520;18.920;2023-10-13T04:21:33;98635.69;;;21.29;59.44
42519;BME280;28147;47.520;18.920;2023-10-13T04:24:05;98648.25;;;21.06;60.11
42519;BME280;28147;47.520;18.920;2023-10-13T04:26:53;98646.81;;;21.28;59.44
42519;BME280;28147;47.520;18.920;2023-10-13T04:29:38;98647.38;;;21.25;58.96
42519;BME280;28147;47.520;18.920;2023-10-13T04:32:22;98649.94;;;21.02;59.86
42519;BME280;28147;47.520;18.920;2023-10-13T04:34:57;98633.63;;;21.07;60.18
42519;BME280;28147;47.520;18.920;2023-10-13T04:37:33;98631.84;;;20.84;60.97
42519;BME280;28147;47.520;18.920;2023-10-13T04:40:13;98628.94;;;20.94;60.43
42519;BME280;28147;47.520;18.920;2023-10-13T04:42:40;98637.38;;;21.25;59.66
42519;BME280;28147;47.520;18.920;2023-10-13T04:45:16;98647.00;;;21.31;59.10
42519;BME280;28147;47.520;18.920;2023-10-13T04:47:59;98647.13;;;21.26;59.91
42519;BME280;28147;47.520;18.920;2023-10-13T04:50:59;98652.09;;;21.19;60.25
42519;BME280;28147;47.520;18.920;2023-10-13T04:53:44;98642.06;;;21.20;60.26
42519;BME280;28147;47.520;18.920;2023-10-13T04:56:25;98656.44;;;21.01;61.19
42519;BME280;28147;47.520;18.920;2023-10-13T04:59:06;98655.44;;;20.97;61.10
42519;BME280;28147;47.520;18.920;2023-10-13T05:01:43;98660.84;;;20.97;61.15
42519;BME280;28147;47.520;18.920;2023-10-13T05:04:15;98673.69;;;20.73;62.13
42519;BME280;28147;47.520;18.920;2023-10-13T05:06:58;98671.31;;;20.85;61.83
42519;BME280;28147;47.520;18.920;2023-10-13T05:09:42;98665.84;;;20.71;62.09
42519;BME280;28147;47.520;18.920;2023-10-13T05:12:42;98672.94;;;20.86;62.08
42519;BME280;28147;47.520;18.920;2023-10-13T05:15:26;98676.06;;;20.93;61.76
42519;BME280;28147;47.520;18.920;2023-10-13T05:18:24;98688.44;;;20.99;61.61
42519;BME280;28147;47.520;18.920;2023-10-13T05:21:07;98688.06;;;20.87;61.66
42519;BME280;28147;47.520;18.920;2023-10-13T05:23:51;98685.53;;;20.77;62.00
42519;BME280;28147;47.520;18.920;2023-10-13T05:26:35;98691.38;;;20.65;62.26
42519;BME280;28147;47.520;18.920;2023-10-13T05:29:19;98701.97;;;20.61;62.39
42519;BME280;28147;47.520;18.920;2023-10-13T05:32:03;98717.47;;;20.75;61.91
42519;BME280;28147;47.520;18.920;2023-10-13T05:34:47;98713.38;;;20.96;61.08
42519;BME280;28147;47.520;18.920;2023-10-13T05:37:31;98706.66;;;20.75;62.22
42519;BME280;28147;47.520;18.920;2023-10-13T05:40:15;98723.78;;;20.89;61.93
42519;BME280;28147;47.520;18.920;2023-10-13T05:42:59;98725.66;;;21.07;61.28
42519;BME280;28147;47.520;18.920;2023-10-13T05:45:43;98725.44;;;20.66;62.65
42519;BME280;28147;47.520;18.920;2023-10-13T05:48:27;98730.56;;;20.68;63.01
42519;BME280;28147;47.520;18.920;2023-10-13T05:51:31;98736.34;;;20.61;63.38
42519;BME280;28147;47.520;18.920;2023-10-13T05:54:13;98738.66;;;20.68;63.63
42519;BME280;28147;47.520;18.920;2023-10-13T05:56:42;98736.34;;;20.80;62.65
42519;BME280;28147;47.520;18.920;2023-10-13T05:59:27;98742.34;;;20.77;62.91
42519;BME280;28147;47.520;18.920;2023-10-13T06:02:15;98736.16;;;20.52;64.02
42519;BME280;28147;47.520;18.920;2023-10-13T06:05:07;98740.28;;;20.50;63.59
42519;BME280;28147;47.520;18.920;2023-10-13T06:07:52;98753.50;;;20.51;63.99
42519;BME280;28147;47.520;18.920;2023-10-13T06:10:37;98750.03;;;20.70;63.23
42519;BME280;28147;47.520;18.920;2023-10-13T06:13:21;98753.22;;;20.90;62.75
42519;BME280;28147;47.520;18.920;2023-10-13T06:16:11;98749.91;;;20.99;62.65
42519;BME280;28147;47.520;18.920;2023-10-13T06:18:56;98756.97;;;21.13;62.86
42519;BME280;28147;47.520;18.920;2023-10-13T06:21:40;98758.59;;;21.14;62.59
42519;BME280;28147;47.520;18.920;2023-10-13T06:24:24;98764.66;;;21.06;62.22
42519;BME280;28147;47.520;18.920;2023-10-13T06:27:08;98774.44;;;21.02;62.85
42519;BME280;28147;47.520;18.920;2023-10-13T06:29:52;98762.38;;;21.13;62.64
42519;BME280;28147;47.520;18.920;2023-10-13T06:32:21;98770.34;;;21.24;62.48
42519;BME280;28147;47.520;18.920;2023-10-13T06:34:55;98774.41;;;21.07;62.82
42519;BME280;28147;47.520;18.920;2023-10-13T06:37:27;98779.66;;;21.18;62.00
42519;BME280;28147;47.520;18.920;2023-10-13T06:40:03;98783.88;;;21.24;61.03
42519;BME280;28147;47.520;18.920;2023-10-13T06:42:48;98780.47;;;21.18;61.31
42519;BME280;28147;47.520;18.920;2023-10-13T06:45:13;98788.38;;;21.33;60.40
42519;BME280;28147;47.520;18.920;2023-10-13T06:47:41;98789.75;;;21.31;59.67
42519;BME280;28147;47.520;18.920;2023-10-13T06:50:13;98781.88;;;21.34;59.89
42519;BME280;28147;47.520;18.920;2023-10-13T06:52:45;98804.97;;;21.27;59.69
42519;BME280;28147;47.520;18.920;2023-10-13T06:55:15;98804.63;;;21.33;59.95
42519;BME280;28147;47.520;18.920;2023-10-13T06:57:56;98799.78;;;21.30;59.94
42519;BME280;28147;47.520;18.920;2023-10-13T07:00:28;98799.34;;;21.23;60.12
42519;BME280;28147;47.520;18.920;2023-10-13T07:03:02;98799.56;;;21.27;60.81
42519;BME280;28147;47.520;18.920;2023-10-13T07:05:38;98799.63;;;21.22;60.95
42519;BME280;28147;47.520;18.920;2023-10-13T07:08:07;98803.38;;;21.26;60.82
42519;BME280;28147;47.520;18.920;2023-10-13T07:10:34;98803.88;;;21.28;61.03
42519;BME280;28147;47.520;18.920;2023-10-13T07:13:17;98808.38;;;21.32;61.23
42519;BME280;28147;47.520;18.920;2023-10-13T07:15:45;98806.47;;;21.38;61.32
42519;BME280;28147;47.520;18.920;2023-10-13T07:18:12;98806.44;;;21.57;60.56
42519;BME280;28147;47.520;18.920;2023-10-13T07:20:40;98801.50;;;21.59;60.76
42519;BME280;28147;47.520;18.920;2023-10-13T07:23:12;98816.81;;;21.69;60.75
42519;BME280;28147;47.520;18.920;2023-10-13T07:25:52;98805.75;;;21.65;60.53
42519;BME280;28147;47.520;18.920;2023-10-13T07:28:28;98802.72;;;21.53;61.55
42519;BME280;28147;47.520;18.920;2023-10-13T07:30:53;98798.16;;;21.67;61.26
42519;BME280;28147;47.520;18.920;2023-10-13T07:33:19;98811.59;;;21.72;61.25
42519;BME280;28147;47.520;18.920;2023-10-13T07:36:09;98808.22;;;21.80;61.11
42519;BME280;28147;47.520;18.920;2023-10-13T07:38:42;98819.38;;;21.79;61.57
42519;BME280;28147;47.520;18.920;2023-10-13T07:41:08;98814.00;;;21.74;62.50
42519;BME280;28147;47.520;18.920;2023-10-13T07:43:34;98814.00;;;21.74;61.89
42519;BME280;28147;47.520;18.920;2023-10-13T07:45:59;98813.31;;;21.82;61.89
42519;BME280;28147;47.520;18.920;2023-10-13T07:48:25;98808.47;;;21.98;61.53
42519;BME280;28147;47.520;18.920;2023-10-13T07:51:09;98812.25;;;21.97;62.12
42519;BME280;28147;47.520;18.920;2023-10-13T07:53:45;98810.44;;;21.92;62.13
42519;BME280;28147;47.520;18.920;2023-10-13T07:56:13;98803.03;;;21.98;62.35
42519;BME280;28147;47.520;18.920;2023-10-13T07:58:43;98797.06;;;22.15;61.83
42519;BME280;28147;47.520;18.920;2023-10-13T08:01:35;98802.91;;;22.22;61.59
42519;BME280;28147;47.520;18.920;2023-10-13T08:04:00;98802.72;;;22.32;60.62
42519;BME280;28147;47.520;18.920;2023-10-13T08:06:38;98803.72;;;22.36;60.72
42519;BME280;28147;47.520;18.920;2023-10-13T08:09:08;98798.88;;;22.33;61.03
42519;BME280;28147;47.520;18.920;2023-10-13T08:11:37;98803.19;;;22.34;57.53
42519;BME280;28147;47.520;18.920;2023-10-13T08:14:04;98805.94;;;22.62;57.32
42519;BME280;28147;47.520;18.920;2023-10-13T08:16:40;98807.09;;;22.83;57.58
42519;BME280;28147;47.520;18.920;2023-10-13T08:19:25;98792.84;;;22.91;56.82
42519;BME280;28147;47.520;18.920;2023-10-13T08:22:04;98787.19;;;22.88;56.43
42519;BME280;28147;47.520;18.920;2023-10-13T08:24:46;98803.16;;;23.03;57.06
42519;BME280;28147;47.520;18.920;2023-10-13T08:27:13;98795.03;;;23.03;57.08
42519;BME280;28147;47.520;18.920;2023-10-13T08:29:45;98797.31;;;23.10;58.03
42519;BME280;28147;47.520;18.920;2023-10-13T08:32:24;98800.28;;;23.22;58.32
42519;BME280;28147;47.520;18.920;2023-10-13T08:34:49;98806.25;;;23.24;57.87
42519;BME280;28147;47.520;18.920;2023-10-13T08:37:18;98802.28;;;23.08;56.35
42519;BME280;28147;47.520;18.920;2023-10-13T08:39:56;98804.88;;;23.13;56.57
42519;BME280;28147;47.520;18.920;2023-10-13T08:45:13;98807.41;;;23.31;54.13
42519;BME280;28147;47.520;18.920;2023-10-13T08:47:52;98811.94;;;23.36;55.53
42519;BME280;28147;47.520;18.920;2023-10-13T08:50:36;98809.34;;;23.31;56.17
42519;BME280;28147;47.520;18.920;2023-10-13T08:56:05;98812.91;;;23.40;53.37
42519;BME280;28147;47.520;18.920;2023-10-13T08:58:47;98807.56;;;23.26;53.68
42519;BME280;28147;47.520;18.920;2023-10-13T09:01:19;98797.69;;;23.53;53.40
42519;BME280;28147;47.520;18.920;2023-10-13T09:04:10;98808.69;;;23.70;53.46
42519;BME280;28147;47.520;18.920;2023-10-13T09:09:25;98803.91;;;23.98;51.38
42519;BME280;28147;47.520;18.920;2023-10-13T09:12:00;98811.81;;;23.86;50.01
42519;BME280;28147;47.520;18.920;2023-10-13T09:14:41;98798.38;;;23.81;49.92
42519;BME280;28147;47.520;18.920;2023-10-13T09:17:11;98806.75;;;23.93;48.58
42519;BME280;28147;47.520;18.920;2023-10-13T09:19:50;98808.50;;;23.67;49.60
42519;BME280;28147;47.520;18.920;2023-10-13T09:22:30;98814.56;;;24.17;48.84
42519;BME280;28147;47.520;18.920;2023-10-13T09:25:04;98819.25;;;24.57;49.36
42519;BME280;28147;47.520;18.920;2023-10-13T09:27:32;98805.47;;;24.62;46.91
42519;BME280;28147;47.520;18.920;2023-10-13T09:30:04;98817.31;;;24.57;47.85
42519;BME280;28147;47.520;18.920;2023-10-13T09:32:44;98810.72;;;24.49;47.63
42519;BME280;28147;47.520;18.920;2023-10-13T09:35:20;98807.72;;;23.97;48.04
42519;BME280;28147;47.520;18.920;2023-10-13T09:37:52;98802.00;;;23.99;49.24
42519;BME280;28147;47.520;18.920;2023-10-13T09:40:22;98805.25;;;24.10;48.77
42519;BME280;28147;47.520;18.920;2023-10-13T09:42:54;98805.31;;;24.27;48.96
42519;BME280;28147;47.520;18.920;2023-10-13T09:45:31;98803.88;;;24.21;49.71
42519;BME280;28147;47.520;18.920;2023-10-13T09:48:12;98796.28;;;24.40;48.34
42519;BME280;28147;47.520;18.920;2023-10-13T09:50:52;98806.13;;;24.59;49.49
42519;BME280;28147;47.520;18.920;2023-10-13T09:53:22;98812.81;;;24.52;49.06
42519;BME280;28147;47.520;18.920;2023-10-13T09:55:55;98810.69;;;24.89;47.66
42519;BME280;28147;47.520;18.920;2023-10-13T09:58:29;98808.16;;;25.19;47.61
42519;BME280;28147;47.520;18.920;2023-10-13T10:01:06;98810.38;;;25.86;47.21
42519;BME280;28147;47.520;18.920;2023-10-13T10:03:44;98800.56;;;25.94;47.09
42519;BME280;28147;47.520;18.920;2023-10-13T10:06:21;98800.78;;;25.80;46.22
42519;BME280;28147;47.520;18.920;2023-10-13T10:09:04;98800.00;;;26.27;45.07
42519;BME280;28147;47.520;18.920;2023-10-13T10:17:24;98781.38;;;26.67;45.30
42519;BME280;28147;47.520;18.920;2023-10-13T10:19:55;98792.56;;;27.25;43.77
42519;BME280;28147;47.520;18.920;2023-10-13T10:22:28;98781.47;;;26.41;45.74
42519;BME280;28147;47.520;18.920;2023-10-13T10:25:05;98781.91;;;26.52;45.72
42519;BME280;28147;47.520;18.920;2023-10-13T10:27:58;98780.94;;;26.86;45.35
42519;BME280;28147;47.520;18.920;2023-10-13T10:30:28;98778.25;;;26.39;46.20
42519;BME280;28147;47.520;18.920;2023-10-13T10:32:55;98782.03;;;27.35;45.30
42519;BME280;28147;47.520;18.920;2023-10-13T10:36:00;98775.31;;;27.45;44.68
42519;BME280;28147;47.520;18.920;2023-10-13T10:38:25;98764.19;;;27.83;43.51
42519;BME280;28147;47.520;18.920;2023-10-13T10:40:57;98769.00;;;27.86;43.71
42519;BME280;28147;47.520;18.920;2023-10-13T10:43:25;98760.16;;;27.35;44.24
42519;BME280;28147;47.520;18.920;2023-10-13T10:45:52;98763.22;;;26.62;45.27
42519;BME280;28147;47.520;18.920;2023-10-13T10:48:18;98763.34;;;26.36;46.57
42519;BME280;28147;47.520;18.920;2023-10-13T10:50:54;98754.72;;;26.85;45.26
42519;BME280;28147;47.520;18.920;2023-10-13T10:53:23;98754.69;;;27.35;43.64
42519;BME280;28147;47.520;18.920;2023-10-13T10:56:04;98759.06;;;27.49;43.66
42519;BME280;28147;47.520;18.920;2023-10-13T10:58:34;98753.59;;;27.07;42.98
42519;BME280;28147;47.520;18.920;2023-10-13T11:01:09;98762.78;;;26.81;43.89
42519;BME280;28147;47.520;18.920;2023-10-13T11:03:59;98747.44;;;27.52;43.86
42519;BME280;28147;47.520;18.920;2023-10-13T11:06:34;98760.63;;;26.66;44.97
42519;BME280;28147;47.520;18.920;2023-10-13T11:09:04;98755.84;;;27.05;43.63
42519;BME280;28147;47.520;18.920;2023-10-13T11:11:44;98750.47;;;27.38;44.10
42519;BME280;28147;47.520;18.920;2023-10-13T11:14:22;98740.91;;;27.44;44.52
42519;BME280;28147;47.520;18.920;2023-10-13T11:16:52;98745.34;;;26.95;44.45
42519;BME280;28147;47.520;18.920;2023-10-13T11:19:35;98733.78;;;27.31;43.97
42519;BME280;28147;47.520;18.920;2023-10-13T11:22:15;98737.31;;;26.89;44.29
42519;BME280;28147;47.520;18.920;2023-10-13T11:25:06;98726.78;;;27.42;43.73
42519;BME280;28147;47.520;18.920;2023-10-13T11:27:35;98733.50;;;27.11;45.16
42519;BME280;28147;47.520;18.920;2023-10-13T11:30:33;98733.38;;;26.78;44.91
42519;BME280;28147;47.520;18.920;2023-10-13T11:33:05;98736.84;;;26.66;45.54
42519;BME280;28147;47.520;18.920;2023-10-13T11:35:34;98736.94;;;26.79;45.95
42519;BME280;28147;47.520;18.920;2023-10-13T11:38:36;98735.47;;;26.60;46.21
42519;BME280;28147;47.520;18.920;2023-10-13T11:41:10;98719.56;;;26.24;44.20
42519;BME280;28147;47.520;18.920;2023-10-13T11:46:22;98726.94;;;26.83;43.63
42519;BME280;28147;47.520;18.920;2023-10-13T11:49:10;98730.94;;;26.64;44.07
42519;BME280;28147;47.520;18.920;2023-10-13T11:51:47;98728.97;;;26.35;45.15
42519;BME280;28147;47.520;18.920;2023-10-13T11:54:19;98730.66;;;26.78;44.44
42519;BME280;28147;47.520;18.920;2023-10-13T11:56:47;98727.16;;;27.20;44.05
42519;BME280;28147;47.520;18.920;2023-10-13T11:59:13;98724.53;;;27.23;44.26
42519;BME280;28147;47.520;18.920;2023-10-13T12:01:48;98717.09;;;27.11;44.07
42519;BME280;28147;47.520;18.920;2023-10-13T12:04:33;98717.66;;;27.38;44.22
42519;BME280;28147;47.520;18.920;2023-10-13T12:07:17;98713.44;;;26.86;44.01
42519;BME280;28147;47.520;18.920;2023-10-13T12:09:48;98713.00;;;26.97;43.49
42519;BME280;28147;47.520;18.920;2023-10-13T12:12:24;98716.41;;;26.73;43.44
42519;BME280;28147;47.520;18.920;2023-10-13T12:14:50;98721.72;;;26.39;44.50
42519;BME280;28147;47.520;18.920;2023-10-13T12:17:20;98716.13;;;27.07;43.56
42519;BME280;28147;47.520;18.920;2023-10-13T12:20:04;98706.66;;;27.05;42.69
42519;BME280;28147;47.520;18.920;2023-10-13T12:22:33;98704.88;;;27.09;42.87
42519;BME280;28147;47.520;18.920;2023-10-13T12:25:07;98705.09;;;27.25;43.12
42519;BME280;28147;47.520;18.920;2023-10-13T12:27:53;98698.44;;;27.13;43.12
42519;BME280;28147;47.520;18.920;2023-10-13T12:30:22;98693.69;;;27.23;40.88
42519;BME280;28147;47.520;18.920;2023-10-13T12:33:01;98694.31;;;27.40;41.84
42519;BME280;28147;47.520;18.920;2023-10-13T12:35:43;98697.78;;;27.16;40.24
42519;BME280;28147;47.520;18.920;2023-10-13T12:38:30;98698.41;;;26.92;40.37
42519;BME280;28147;47.520;18.920;2023-10-13T12:41:14;98699.59;;;27.04;41.63
42519;BME280;28147;47.520;18.920;2023-10-13T12:43:58;98692.50;;;27.45;41.07
42519;BME280;28147;47.520;18.920;2023-10-13T12:46:46;98687.50;;;27.47;41.33
42519;BME280;28147;47.520;18.920;2023-10-13T12:49:33;98683.28;;;27.61;41.11
42519;BME280;28147;47.520;18.920;2023-10-13T12:52:08;98680.63;;;27.40;40.42
42519;BME280;28147;47.520;18.920;2023-10-13T12:54:53;98678.81;;;27.45;40.70
42519;BME280;28147;47.520;18.920;2023-10-13T12:57:25;98679.56;;;27.66;39.87
42519;BME280;28147;47.520;18.920;2023-10-13T12:59:51;98674.25;;;27.36;40.67
42519;BME280;28147;47.520;18.920;2023-10-13T13:02:23;98670.59;;;27.32;39.78
42519;BME280;28147;47.520;18.920;2023-10-13T13:04:50;98661.16;;;27.42;40.50
42519;BME280;28147;47.520;18.920;2023-10-13T13:07:20;98666.19;;;27.52;41.25
42519;BME280;28147;47.520;18.920;2023-10-13T13:09:45;98669.53;;;27.04;41.61
42519;BME280;28147;47.520;18.920;2023-10-13T13:12:10;98661.66;;;27.23;40.55
42519;BME280;28147;47.520;18.920;2023-10-13T13:14:38;98670.78;;;27.27;41.43
42519;BME280;28147;47.520;18.920;2023-10-13T13:17:06;98663.59;;;27.23;40.85
42519;BME280;28147;47.520;18.920;2023-10-13T13:19:33;98662.56;;;26.94;41.32
42519;BME280;28147;47.520;18.920;2023-10-13T13:22:07;98660.56;;;27.03;41.09
42519;BME280;28147;47.520;18.920;2023-10-13T13:24:39;98662.34;;;26.99;40.93
42519;BME280;28147;47.520;18.920;2023-10-13T13:27:15;98664.09;;;27.25;39.93
42519;BME280;28147;47.520;18.920;2023-10-13T13:29:47;98659.97;;;26.98;40.42
42519;BME280;28147;47.520;18.920;2023-10-13T13:32:13;98674.97;;;26.71;40.76
42519;BME280;28147;47.520;18.920;2023-10-13T13:34:49;98658.97;;;26.81;39.17
42519;BME280;28147;47.520;18.920;2023-10-13T13:37:28;98669.84;;;26.69;40.00
42519;BME280;28147;47.520;18.920;2023-10-13T13:39:54;98655.19;;;26.53;39.22
42519;BME280;28147;47.520;18.920;2023-10-13T13:42:19;98657.59;;;26.54;39.11
42519;BME280;28147;47.520;18.920;2023-10-13T13:44:45;98656.19;;;26.69;38.76
42519;BME280;28147;47.520;18.920;2023-10-13T13:47:14;98656.09;;;26.99;38.35